Time;durP1;ratioP1;P1;durP2;ratioP2;P2;SDS_P1;SDS_P2;PMS_P1;PMS_P2;Temp;Humidity;BMP_temperature;BMP_pressure;BME280_temperature;BME280_humidity;BME280_pressure;Samples;Min_cycle;Max_cycle;Signal;HPM_P1;HPM_P2
2023/07/13 00:01:04;;;;;;;8.68;2.33;;;16.50;99.90;;;;;;5054119;28;20076;-75
2023/07/13 00:03:35;;;;;;;8.43;2.30;;;16.50;99.90;;;;;;5070349;28;20071;-75
2023/07/13 00:06:01;;;;;;;8.73;2.40;;;16.50;99.90;;;;;;5073208;28;20068;-75
2023/07/13 00:08:30;;;;;;;10.85;2.70;;;16.40;99.90;;;;;;5055419;28;20033;-75
2023/07/13 00:10:56;;;;;;;7.25;2.30;;;16.40;99.90;;;;;;5052896;28;20045;-75
2023/07/13 00:13:22;;;;;;;11.98;2.60;;;16.50;99.90;;;;;;5071586;28;20051;-75
2023/07/13 00:15:47;;;;;;;10.82;2.60;;;16.40;99.90;;;;;;5056140;28;20166;-74
2023/07/13 00:18:13;;;;;;;9.07;2.50;;;16.40;99.90;;;;;;5074449;28;20046;-74
2023/07/13 00:20:41;;;;;;;9.00;2.15;;;16.40;99.90;;;;;;5063670;28;20041;-74
2023/07/13 00:23:07;;;;;;;9.25;2.53;;;16.30;99.90;;;;;;5055779;28;20090;-75
2023/07/13 00:25:32;;;;;;;10.57;2.60;;;16.40;99.90;;;;;;5065276;28;20112;-75
2023/07/13 00:27:58;;;;;;;10.52;2.40;;;16.40;99.90;;;;;;5075188;28;20094;-74
2023/07/13 00:30:24;;;;;;;9.18;2.50;;;16.50;99.90;;;;;;5065921;28;20044;-75
2023/07/13 00:32:49;;;;;;;11.38;2.55;;;16.40;99.90;;;;;;5056684;28;20045;-75
2023/07/13 00:35:15;;;;;;;8.23;2.25;;;16.40;99.90;;;;;;5062443;28;20040;-74
2023/07/13 00:37:41;;;;;;;10.27;2.53;;;16.40;99.90;;;;;;5058575;28;20036;-74
2023/07/13 00:40:07;;;;;;;13.02;2.63;;;16.40;99.90;;;;;;5068336;28;20120;-74
2023/07/13 00:42:34;;;;;;;12.18;2.35;;;16.40;99.90;;;;;;5055133;28;20037;-74
2023/07/13 00:45:11;;;;;;;12.60;2.42;;;16.40;99.90;;;;;;5055355;28;20477;-74
2023/07/13 00:47:38;;;;;;;14.45;2.97;;;16.40;99.90;;;;;;5055088;28;20555;-74
2023/07/13 00:50:08;;;;;;;9.07;2.45;;;16.40;99.90;;;;;;5059175;28;20062;-74
2023/07/13 00:52:37;;;;;;;10.20;2.58;;;16.50;99.90;;;;;;5058403;28;20044;-74
2023/07/13 00:55:03;;;;;;;13.18;2.97;;;16.50;99.90;;;;;;5072975;28;20048;-74
2023/07/13 00:57:29;;;;;;;12.73;2.85;;;16.50;99.90;;;;;;5073629;28;20107;-74
2023/07/13 00:59:59;;;;;;;13.00;2.83;;;16.50;99.90;;;;;;5064851;28;20076;-75
2023/07/13 01:02:26;;;;;;;11.50;2.55;;;16.50;99.90;;;;;;5072717;28;20071;-75
2023/07/13 01:04:51;;;;;;;11.80;2.83;;;16.50;99.90;;;;;;5057044;28;20039;-75
2023/07/13 01:07:19;;;;;;;11.65;2.88;;;16.50;99.90;;;;;;5074867;28;20119;-75
2023/07/13 01:09:45;;;;;;;10.77;2.85;;;16.50;99.90;;;;;;5049456;28;20460;-75
2023/07/13 01:12:11;;;;;;;13.68;3.03;;;16.50;99.90;;;;;;5054727;28;20040;-74
2023/07/13 01:14:37;;;;;;;12.13;2.65;;;16.50;99.90;;;;;;5070542;28;20041;-75
2023/07/13 01:17:03;;;;;;;10.85;2.85;;;16.60;99.90;;;;;;5065906;28;20032;-75
2023/07/13 01:19:39;;;;;;;11.60;2.95;;;16.60;99.90;;;;;;5063005;28;20115;-75
2023/07/13 01:22:13;;;;;;;12.38;2.78;;;16.60;99.90;;;;;;5074521;28;20045;-75
2023/07/13 01:24:40;;;;;;;11.20;2.65;;;16.50;99.90;;;;;;5071380;28;20049;-76
2023/07/13 01:27:07;;;;;;;14.30;3.13;;;16.50;99.90;;;;;;5073358;28;20043;-75
2023/07/13 01:29:41;;;;;;;12.18;2.72;;;16.50;99.90;;;;;;5067268;28;20048;-75
2023/07/13 01:32:12;;;;;;;11.95;2.80;;;16.60;99.90;;;;;;5061145;28;20060;-76
2023/07/13 01:34:38;;;;;;;12.20;3.10;;;16.60;99.90;;;;;;5055375;28;20173;-74
2023/07/13 01:37:07;;;;;;;10.75;2.80;;;16.60;99.90;;;;;;5072709;28;20127;-75
2023/07/13 01:39:35;;;;;;;11.15;2.63;;;16.60;99.90;;;;;;5073106;28;20103;-75
2023/07/13 01:42:02;;;;;;;10.68;2.60;;;16.60;99.90;;;;;;5073222;28;20047;-75
2023/07/13 01:44:27;;;;;;;10.13;2.78;;;16.70;99.90;;;;;;5041959;28;20097;-75
2023/07/13 01:46:53;;;;;;;11.85;2.78;;;16.70;99.90;;;;;;5054078;28;20029;-75
2023/07/13 01:49:19;;;;;;;8.35;2.65;;;16.60;99.90;;;;;;5065002;28;20040;-77
2023/07/13 01:51:44;;;;;;;11.50;2.97;;;16.70;99.90;;;;;;5069203;28;20128;-75
2023/07/13 01:54:10;;;;;;;10.68;2.83;;;16.60;99.90;;;;;;5057195;28;20133;-75
2023/07/13 01:56:36;;;;;;;10.35;2.83;;;16.60;99.90;;;;;;5070783;28;20048;-75
2023/07/13 01:59:02;;;;;;;10.70;2.65;;;16.60;99.90;;;;;;5054112;28;20113;-75
2023/07/13 02:01:27;;;;;;;11.98;2.65;;;16.60;99.90;;;;;;5054426;28;20503;-75
2023/07/13 02:03:53;;;;;;;12.73;3.10;;;16.60;99.90;;;;;;5037005;28;20531;-75
2023/07/13 02:06:18;;;;;;;9.80;3.15;;;16.60;99.90;;;;;;5054852;28;20037;-75
2023/07/13 02:08:44;;;;;;;13.88;3.33;;;16.60;99.90;;;;;;5053695;28;20043;-75
2023/07/13 02:11:10;;;;;;;11.75;2.88;;;16.50;99.90;;;;;;5056979;28;20044;-75
2023/07/13 02:13:35;;;;;;;10.20;2.83;;;16.60;99.90;;;;;;5070421;28;20040;-74
2023/07/13 02:16:01;;;;;;;12.13;2.92;;;16.50;99.90;;;;;;5069255;28;20503;-75
2023/07/13 02:18:27;;;;;;;13.15;2.80;;;16.50;99.90;;;;;;5073597;28;20110;-75
2023/07/13 02:20:53;;;;;;;8.73;2.47;;;16.50;99.90;;;;;;5061030;28;20047;-75
2023/07/13 02:23:18;;;;;;;12.90;3.20;;;16.50;99.90;;;;;;5072394;28;20036;-75
2023/07/13 02:25:45;;;;;;;10.35;2.75;;;16.50;99.90;;;;;;5072014;28;20532;-75
2023/07/13 02:28:11;;;;;;;12.98;3.17;;;16.50;99.90;;;;;;5073243;28;20048;-75
2023/07/13 02:30:37;;;;;;;14.10;3.30;;;16.50;99.90;;;;;;5059546;28;20111;-75
2023/07/13 02:33:02;;;;;;;13.93;3.33;;;16.50;99.90;;;;;;5068845;28;20051;-75
2023/07/13 02:35:28;;;;;;;8.68;2.72;;;16.50;99.90;;;;;;5052785;28;20041;-75
2023/07/13 02:37:54;;;;;;;11.80;2.95;;;16.50;99.90;;;;;;5053332;28;20062;-75
2023/07/13 02:40:20;;;;;;;10.00;2.90;;;16.50;99.90;;;;;;5057756;28;20037;-75
2023/07/13 02:42:46;;;;;;;12.70;3.05;;;16.50;99.90;;;;;;5056328;28;20123;-75
2023/07/13 02:45:13;;;;;;;10.27;3.03;;;16.40;99.90;;;;;;5070711;28;20325;-75
2023/07/13 02:47:41;;;;;;;12.00;3.10;;;16.40;99.90;;;;;;5056172;28;20040;-75
2023/07/13 02:50:07;;;;;;;13.65;3.03;;;16.40;99.90;;;;;;5054410;28;20036;-75
2023/07/13 02:52:32;;;;;;;10.07;2.90;;;16.40;99.90;;;;;;5056110;28;20500;-75
2023/07/13 02:54:58;;;;;;;11.07;2.90;;;16.40;99.90;;;;;;5055242;28;20052;-75
2023/07/13 02:57:24;;;;;;;10.98;2.70;;;16.30;99.90;;;;;;5059695;28;20040;-75
2023/07/13 02:59:50;;;;;;;10.13;2.70;;;16.30;99.90;;;;;;5067254;28;20033;-75
2023/07/13 03:02:16;;;;;;;8.85;2.67;;;16.30;99.90;;;;;;5052646;28;20044;-75
2023/07/13 03:04:41;;;;;;;10.35;2.65;;;16.30;99.90;;;;;;5055131;28;20059;-75
2023/07/13 03:07:07;;;;;;;13.63;3.40;;;16.30;99.90;;;;;;5053940;28;20040;-75
2023/07/13 03:09:34;;;;;;;11.70;3.00;;;16.30;99.90;;;;;;5053983;28;20047;-75
2023/07/13 03:12:00;;;;;;;13.50;3.22;;;16.30;99.90;;;;;;5072370;28;20048;-75
2023/07/13 03:14:26;;;;;;;14.57;3.40;;;16.30;99.90;;;;;;5054667;28;20401;-75
2023/07/13 03:16:52;;;;;;;10.48;3.00;;;16.30;99.90;;;;;;5054089;28;20036;-75
2023/07/13 03:19:18;;;;;;;12.18;3.00;;;16.20;99.90;;;;;;5048134;28;20076;-75
2023/07/13 03:21:45;;;;;;;11.95;3.40;;;16.20;99.90;;;;;;5072421;28;20041;-75
2023/07/13 03:24:10;;;;;;;12.93;3.05;;;16.20;99.90;;;;;;5055561;28;20036;-75
2023/07/13 03:26:36;;;;;;;12.82;2.88;;;16.20;99.90;;;;;;5070208;28;20499;-75
2023/07/13 03:29:02;;;;;;;10.43;3.00;;;16.10;99.90;;;;;;5066220;28;20052;-75
2023/07/13 03:31:34;;;;;;;10.73;2.78;;;16.20;99.90;;;;;;5057246;28;20032;-75
2023/07/13 03:34:00;;;;;;;13.93;2.75;;;16.20;99.90;;;;;;5072154;28;20092;-75
2023/07/13 03:36:28;;;;;;;13.13;3.67;;;16.10;99.90;;;;;;5070007;28;20113;-75
2023/07/13 03:38:57;;;;;;;12.30;3.00;;;16.10;99.90;;;;;;5055770;28;20374;-75
2023/07/13 03:41:24;;;;;;;10.98;3.45;;;16.10;99.90;;;;;;5054061;28;20417;-75
2023/07/13 03:43:50;;;;;;;11.85;3.42;;;16.10;99.90;;;;;;5051987;28;20044;-75
2023/07/13 03:46:17;;;;;;;12.00;2.90;;;16.10;99.90;;;;;;5067820;28;20043;-75
2023/07/13 03:48:45;;;;;;;13.07;3.33;;;16.20;99.90;;;;;;5047158;28;20053;-75
2023/07/13 03:51:13;;;;;;;11.48;3.22;;;16.10;99.90;;;;;;5042562;28;20033;-75
2023/07/13 03:53:41;;;;;;;14.48;3.05;;;16.10;99.90;;;;;;5071871;28;20134;-75
2023/07/13 03:56:07;;;;;;;11.40;2.95;;;16.20;99.90;;;;;;5061402;28;20544;-75
2023/07/13 03:58:35;;;;;;;10.77;3.00;;;16.10;99.90;;;;;;5053280;28;20032;-75
2023/07/13 04:01:02;;;;;;;10.27;3.00;;;16.20;99.90;;;;;;5065872;28;20041;-75
2023/07/13 04:03:29;;;;;;;15.18;3.17;;;16.20;99.90;;;;;;5055066;28;20068;-75
2023/07/13 04:06:00;;;;;;;10.68;3.03;;;16.20;99.90;;;;;;5068262;28;20072;-75
2023/07/13 04:08:36;;;;;;;16.38;3.55;;;16.20;99.90;;;;;;5068317;28;20044;-75
2023/07/13 04:11:03;;;;;;;11.23;2.97;;;16.30;99.90;;;;;;5061443;28;20051;-75
2023/07/13 04:13:29;;;;;;;11.38;3.10;;;16.20;99.90;;;;;;5055270;28;20516;-75
2023/07/13 04:15:55;;;;;;;14.57;3.28;;;16.30;99.90;;;;;;5068601;28;20540;-75
2023/07/13 04:18:21;;;;;;;13.07;3.22;;;16.30;99.90;;;;;;5071648;28;20072;-75
2023/07/13 04:20:48;;;;;;;10.75;3.20;;;16.30;99.90;;;;;;5037094;28;20065;-75
2023/07/13 04:23:14;;;;;;;14.48;3.03;;;16.40;99.90;;;;;;5070104;28;20095;-75
2023/07/13 04:25:49;;;;;;;14.90;3.05;;;16.30;99.90;;;;;;5072125;28;20036;-75
2023/07/13 04:28:15;;;;;;;11.32;3.25;;;16.20;99.90;;;;;;5053609;28;20052;-75
2023/07/13 04:30:41;;;;;;;13.00;3.50;;;16.20;99.90;;;;;;5052753;28;20037;-75
2023/07/13 04:33:08;;;;;;;16.08;3.33;;;16.20;99.90;;;;;;5047598;28;20048;-75
2023/07/13 04:35:34;;;;;;;11.63;3.20;;;16.20;99.90;;;;;;5060547;28;20045;-75
2023/07/13 04:38:00;;;;;;;12.90;3.60;;;16.20;99.90;;;;;;5063795;28;20051;-75
2023/07/13 04:40:27;;;;;;;11.60;3.17;;;16.20;99.90;;;;;;5069738;28;20037;-75
2023/07/13 04:42:52;;;;;;;12.02;3.45;;;16.20;99.90;;;;;;5070132;28;20500;-75
2023/07/13 04:45:18;;;;;;;11.60;3.42;;;16.20;99.90;;;;;;5046091;28;20059;-75
2023/07/13 04:47:44;;;;;;;12.45;3.05;;;16.20;99.90;;;;;;5065785;28;20044;-75
2023/07/13 04:50:12;;;;;;;10.90;2.92;;;16.20;99.90;;;;;;5068253;28;20041;-75
2023/07/13 04:52:38;;;;;;;12.35;3.35;;;16.30;99.90;;;;;;5051292;28;20045;-75
2023/07/13 04:55:04;;;;;;;13.70;3.70;;;16.20;99.90;;;;;;5067444;28;20085;-75
2023/07/13 04:57:30;;;;;;;10.07;3.03;;;16.20;99.90;;;;;;5053253;28;20488;-75
2023/07/13 04:59:55;;;;;;;13.18;3.22;;;16.20;99.90;;;;;;5051046;28;20128;-75
2023/07/13 05:02:22;;;;;;;12.02;3.38;;;16.30;99.90;;;;;;5068187;28;20024;-75
2023/07/13 05:04:48;;;;;;;10.85;3.08;;;16.30;99.90;;;;;;5073926;28;20024;-75
2023/07/13 05:07:14;;;;;;;11.95;2.97;;;16.30;99.90;;;;;;5073552;28;20039;-75
2023/07/13 05:09:40;;;;;;;10.73;3.65;;;16.30;99.90;;;;;;5055964;28;20036;-75
2023/07/13 05:12:07;;;;;;;12.45;3.42;;;16.40;99.90;;;;;;5042736;28;20090;-75
2023/07/13 05:14:33;;;;;;;15.52;3.95;;;16.40;99.90;;;;;;5072738;28;20418;-76
2023/07/13 05:16:58;;;;;;;13.70;3.83;;;16.30;99.90;;;;;;5072419;28;20047;-75
2023/07/13 05:19:24;;;;;;;10.57;3.42;;;16.30;99.90;;;;;;5073300;28;20063;-75
2023/07/13 05:21:50;;;;;;;12.30;3.40;;;16.30;99.90;;;;;;5045877;28;20374;-75
2023/07/13 05:24:15;;;;;;;13.88;4.03;;;16.30;99.90;;;;;;5055910;28;20047;-75
2023/07/13 05:26:41;;;;;;;12.75;3.55;;;16.30;99.90;;;;;;5066402;28;20036;-75
2023/07/13 05:29:07;;;;;;;10.50;4.30;;;16.40;99.90;;;;;;5072254;28;20113;-75
2023/07/13 05:31:32;;;;;;;11.02;3.80;;;16.40;99.90;;;;;;5074323;28;20132;-75
2023/07/13 05:33:58;;;;;;;13.07;3.80;;;16.50;99.90;;;;;;5074693;28;20051;-75
2023/07/13 05:36:23;;;;;;;10.82;3.17;;;16.50;99.90;;;;;;5056750;28;20044;-75
2023/07/13 05:38:54;;;;;;;13.63;3.35;;;16.60;99.90;;;;;;5042016;28;20077;-75
2023/07/13 05:41:20;;;;;;;12.40;3.40;;;16.70;99.90;;;;;;5072406;28;20493;-76
2023/07/13 05:43:46;;;;;;;11.60;3.75;;;16.80;99.90;;;;;;5074074;28;20044;-75
2023/07/13 05:46:11;;;;;;;13.95;3.60;;;16.90;99.90;;;;;;5067161;28;20033;-75
2023/07/13 05:48:37;;;;;;;14.10;4.18;;;16.90;99.90;;;;;;5054460;28;20033;-75
2023/07/13 05:51:03;;;;;;;15.48;3.95;;;16.90;99.90;;;;;;5055049;28;20127;-75
2023/07/13 05:53:28;;;;;;;10.88;3.72;;;16.90;99.90;;;;;;5067408;28;20098;-75
2023/07/13 05:55:55;;;;;;;10.93;3.47;;;17.10;99.90;;;;;;5046286;28;20110;-75
2023/07/13 05:58:21;;;;;;;14.00;3.50;;;17.10;99.90;;;;;;5063982;28;20038;-75
2023/07/13 06:00:47;;;;;;;9.45;2.83;;;17.20;99.90;;;;;;5069177;28;20047;-75
2023/07/13 06:03:13;;;;;;;12.70;3.03;;;17.30;99.90;;;;;;5068102;28;20035;-75
2023/07/13 06:05:39;;;;;;;10.45;3.63;;;17.30;99.90;;;;;;5060430;28;20041;-75
2023/07/13 06:08:05;;;;;;;13.07;3.30;;;17.40;99.90;;;;;;5041108;28;20061;-75
2023/07/13 06:10:37;;;;;;;12.25;3.10;;;17.60;99.90;;;;;;5053509;28;20393;-75
2023/07/13 06:13:03;;;;;;;9.98;3.50;;;17.80;99.90;;;;;;5067577;28;20091;-75
2023/07/13 06:15:28;;;;;;;9.90;2.67;;;17.70;99.90;;;;;;5069838;28;20068;-75
2023/07/13 06:17:54;;;;;;;11.98;2.72;;;17.80;99.90;;;;;;5067757;28;20032;-75
2023/07/13 06:20:20;;;;;;;11.07;3.53;;;17.90;99.90;;;;;;5046394;28;20043;-76
2023/07/13 06:22:45;;;;;;;10.15;2.72;;;17.90;99.90;;;;;;5069286;28;20043;-75
2023/07/13 06:25:11;;;;;;;10.05;2.60;;;18.00;99.90;;;;;;5063571;28;20040;-75
2023/07/13 06:27:36;;;;;;;11.98;3.15;;;18.00;99.90;;;;;;5055202;28;20056;-75
2023/07/13 06:30:03;;;;;;;8.63;2.58;;;18.10;99.90;;;;;;5066996;28;20127;-75
2023/07/13 06:32:28;;;;;;;12.30;3.10;;;18.10;99.90;;;;;;5054544;28;20492;-76
2023/07/13 06:34:54;;;;;;;12.02;3.15;;;18.20;99.90;;;;;;5064409;28;20127;-76
2023/07/13 06:37:19;;;;;;;10.75;2.97;;;18.30;99.90;;;;;;5067558;28;20119;-75
2023/07/13 06:39:45;;;;;;;9.13;2.65;;;18.40;99.90;;;;;;5076749;28;20406;-75
2023/07/13 06:42:11;;;;;;;13.43;2.72;;;18.50;99.90;;;;;;5052233;28;20039;-75
2023/07/13 06:44:37;;;;;;;10.98;3.15;;;18.50;99.90;;;;;;5071048;28;20068;-75
2023/07/13 06:47:02;;;;;;;8.60;2.50;;;18.60;99.90;;;;;;5070346;28;20416;-76
2023/07/13 06:49:28;;;;;;;9.48;2.40;;;18.60;99.90;;;;;;5065536;28;20037;-75
2023/07/13 06:51:54;;;;;;;11.43;2.75;;;18.70;99.90;;;;;;5060364;28;20043;-75
2023/07/13 06:54:19;;;;;;;11.02;3.10;;;18.80;99.90;;;;;;5054387;28;20040;-75
2023/07/13 06:56:45;;;;;;;11.43;3.00;;;18.80;99.90;;;;;;5066771;28;20037;-75
2023/07/13 06:59:10;;;;;;;9.93;2.72;;;18.90;99.90;;;;;;5064263;28;20404;-76
2023/07/13 07:01:36;;;;;;;8.13;2.47;;;19.00;99.90;;;;;;5058460;28;20048;-75
2023/07/13 07:04:03;;;;;;;9.40;2.78;;;19.00;99.90;;;;;;5065564;28;20373;-75
2023/07/13 07:06:29;;;;;;;8.82;2.53;;;18.90;99.90;;;;;;5066426;28;20040;-75
2023/07/13 07:08:54;;;;;;;10.30;2.67;;;18.90;99.90;;;;;;5035445;28;20045;-75
2023/07/13 07:11:23;;;;;;;8.35;2.35;;;19.00;99.90;;;;;;5046880;28;20499;-75
2023/07/13 07:13:49;;;;;;;11.45;2.80;;;18.80;99.90;;;;;;5050391;28;20051;-75
2023/07/13 07:16:16;;;;;;;11.30;2.53;;;18.80;99.90;;;;;;5049331;28;20044;-75
2023/07/13 07:18:41;;;;;;;9.00;2.33;;;18.90;99.90;;;;;;5041677;28;20452;-75
2023/07/13 07:21:07;;;;;;;12.48;3.08;;;19.10;99.90;;;;;;5065190;28;20119;-75
2023/07/13 07:23:33;;;;;;;8.50;3.00;;;19.20;99.90;;;;;;5053861;28;20033;-75
2023/07/13 07:25:59;;;;;;;6.57;2.03;;;19.30;99.90;;;;;;5059377;28;20039;-75
2023/07/13 07:28:25;;;;;;;6.95;2.40;;;19.40;99.90;;;;;;5056986;28;20064;-75
2023/07/13 07:30:54;;;;;;;7.63;2.40;;;19.30;99.90;;;;;;5051961;28;20492;-75
2023/07/13 07:33:20;;;;;;;7.43;2.30;;;19.20;99.90;;;;;;5043106;28;20048;-75
2023/07/13 07:35:46;;;;;;;8.10;2.90;;;19.10;99.90;;;;;;5035431;28;20041;-75
2023/07/13 07:38:11;;;;;;;9.30;2.72;;;19.10;99.90;;;;;;5054768;28;20072;-75
2023/07/13 07:40:40;;;;;;;6.97;2.20;;;19.10;99.90;;;;;;5053662;28;20083;-75
2023/07/13 07:43:09;;;;;;;8.77;2.42;;;19.10;99.90;;;;;;5046339;28;20041;-75
2023/07/13 07:45:35;;;;;;;9.23;2.38;;;19.10;99.90;;;;;;5053652;28;20047;-75
2023/07/13 07:48:01;;;;;;;9.68;2.42;;;19.00;99.90;;;;;;5041200;28;20032;-75
2023/07/13 07:50:28;;;;;;;11.85;3.22;;;19.10;99.90;;;;;;5074427;28;20531;-75
2023/07/13 07:52:55;;;;;;;8.40;2.65;;;19.30;99.90;;;;;;5042460;28;20047;-75
2023/07/13 07:55:21;;;;;;;8.85;2.53;;;19.40;99.90;;;;;;5039110;28;20037;-75
2023/07/13 07:57:47;;;;;;;8.65;3.05;;;19.40;99.90;;;;;;5048117;28;20045;-86
2023/07/13 08:00:14;;;;;;;8.68;2.50;;;19.40;99.90;;;;;;5070862;28;20048;-75
2023/07/13 08:02:41;;;;;;;13.00;3.00;;;19.30;99.90;;;;;;5049152;28;20036;-76
2023/07/13 08:05:08;;;;;;;9.77;2.88;;;19.20;99.90;;;;;;5040681;28;20040;-77
2023/07/13 08:07:34;;;;;;;8.68;3.00;;;19.00;99.90;;;;;;5050945;28;20045;-77
2023/07/13 08:09:59;;;;;;;9.40;2.92;;;18.70;99.90;;;;;;5045400;28;20036;-77
2023/07/13 08:12:25;;;;;;;11.23;3.13;;;18.70;99.90;;;;;;5070376;28;20099;-77
2023/07/13 08:14:57;;;;;;;7.47;2.30;;;18.60;99.90;;;;;;5046842;28;20089;-77
2023/07/13 08:17:23;;;;;;;7.07;2.42;;;18.60;99.90;;;;;;5061380;28;20036;-77
2023/07/13 08:19:50;;;;;;;9.40;2.88;;;18.50;99.90;;;;;;5042126;28;20040;-77
2023/07/13 08:22:15;;;;;;;7.47;2.70;;;18.40;99.90;;;;;;5067440;28;20082;-77
2023/07/13 08:24:44;;;;;;;9.63;3.63;;;18.40;99.90;;;;;;5062450;28;20032;-77
2023/07/13 08:27:13;;;;;;;9.35;3.70;;;18.40;99.90;;;;;;5061811;28;20036;-77
2023/07/13 08:29:39;;;;;;;10.38;3.60;;;18.30;99.90;;;;;;5068174;28;20109;-77
2023/07/13 08:32:08;;;;;;;10.00;3.30;;;18.10;99.90;;;;;;5070718;28;20094;-77
2023/07/13 08:34:35;;;;;;;10.38;3.08;;;18.00;99.90;;;;;;5069246;28;20475;-77
2023/07/13 08:37:02;;;;;;;9.68;2.83;;;18.20;99.90;;;;;;5044777;28;20036;-77
2023/07/13 08:39:29;;;;;;;8.75;2.60;;;18.20;99.90;;;;;;5038270;28;20044;-77
2023/07/13 08:42:04;;;;;;;6.65;2.55;;;17.80;99.90;;;;;;5055794;28;20071;-77
2023/07/13 08:44:56;;;;;;;9.85;3.20;;;17.70;99.90;;;;;;5038373;28;20136;-77
2023/07/13 08:47:24;;;;;;;14.23;3.30;;;17.50;99.90;;;;;;5051629;28;20170;-75
2023/07/13 08:49:50;;;;;;;12.77;3.95;;;17.70;99.90;;;;;;5073701;28;20166;-75
2023/07/13 08:52:22;;;;;;;12.65;3.88;;;17.60;99.90;;;;;;5047962;28;20048;-77
2023/07/13 08:54:54;;;;;;;16.83;5.57;;;17.30;99.90;;;;;;5056645;28;20040;-77
2023/07/13 08:57:21;;;;;;;;;;;17.20;99.90;;;;;;5063346;28;20043;-75
2023/07/13 08:59:47;;;;;;;10.18;3.80;;;17.10;99.90;;;;;;5053860;28;19921;-77
2023/07/13 09:02:26;;;;;;;7.88;2.80;;;17.00;99.90;;;;;;5054779;28;20036;-76
2023/07/13 09:05:04;;;;;;;9.50;2.90;;;16.90;99.90;;;;;;5054707;28;20123;-76
2023/07/13 09:07:41;;;;;;;6.32;2.80;;;16.70;99.90;;;;;;5072481;28;20410;-76
2023/07/13 09:10:27;;;;;;;7.10;3.08;;;16.80;99.90;;;;;;5048542;28;20043;-77
2023/07/13 09:12:53;;;;;;;6.82;2.40;;;16.80;99.90;;;;;;5043958;28;20040;-77
2023/07/13 09:15:24;;;;;;;8.15;2.40;;;16.80;99.90;;;;;;5072774;28;20040;-77
2023/07/13 09:17:52;;;;;;;6.70;2.55;;;16.90;99.90;;;;;;5055674;28;20076;-77
2023/07/13 09:20:59;;;;;;;6.30;2.58;;;17.00;99.90;;;;;;5072374;28;20044;-78
2023/07/13 09:23:29;;;;;;;5.95;2.30;;;17.00;99.90;;;;;;5070984;28;20033;-77
2023/07/13 09:26:12;;;;;;;10.55;2.97;;;17.10;99.90;;;;;;5063213;28;20044;-77
2023/07/13 09:28:47;;;;;;;6.35;2.60;;;17.10;99.90;;;;;;5053734;28;20464;-77
2023/07/13 09:31:36;;;;;;;6.45;2.58;;;17.30;99.90;;;;;;5088423;28;20044;-78
2023/07/13 09:34:04;;;;;;;8.70;3.28;;;17.40;99.90;;;;;;5065510;28;20087;-78
2023/07/13 09:36:36;;;;;;;8.85;3.10;;;17.50;99.90;;;;;;5046846;28;20056;-77
2023/07/13 09:39:08;;;;;;;8.07;2.95;;;17.50;99.90;;;;;;5036994;28;20444;-77
2023/07/13 09:41:50;;;;;;;9.15;3.38;;;17.50;99.90;;;;;;5040149;28;20095;-77
2023/07/13 09:44:18;;;;;;;8.23;3.17;;;17.60;99.90;;;;;;5072212;28;20055;-78
2023/07/13 09:46:52;;;;;;;8.43;3.45;;;17.60;99.90;;;;;;5073142;28;20407;-77
2023/07/13 09:49:23;;;;;;;7.32;3.28;;;17.60;99.90;;;;;;5081029;28;20484;-77
2023/07/13 09:52:01;;;;;;;8.90;3.58;;;17.60;99.90;;;;;;5071989;28;20045;-78
2023/07/13 09:54:27;;;;;;;8.88;3.60;;;17.70;99.90;;;;;;5060150;28;20032;-77
2023/07/13 09:56:57;;;;;;;9.93;4.32;;;17.90;99.90;;;;;;5055053;28;20044;-77
2023/07/13 09:59:29;;;;;;;11.70;4.05;;;18.00;99.90;;;;;;5052220;28;20043;-77
2023/07/13 10:01:55;;;;;;;7.22;3.53;;;18.00;99.90;;;;;;5073377;28;20036;-77
2023/07/13 10:04:33;;;;;;;6.80;3.22;;;18.00;99.90;;;;;;5057364;28;20059;-77
2023/07/13 10:07:12;;;;;;;6.30;3.10;;;17.90;99.90;;;;;;5063804;28;20041;-78
2023/07/13 10:09:38;;;;;;;8.18;3.70;;;17.90;99.90;;;;;;5063914;28;20135;-77
2023/07/13 10:12:14;;;;;;;6.65;2.97;;;17.80;99.90;;;;;;5044116;28;20072;-77
2023/07/13 10:14:41;;;;;;;7.72;3.40;;;17.80;99.90;;;;;;5057585;28;20052;-76
2023/07/13 10:17:12;;;;;;;7.78;3.78;;;17.90;99.90;;;;;;5065047;28;20041;-77
2023/07/13 10:19:39;;;;;;;8.35;3.35;;;17.90;99.90;;;;;;5064062;28;20045;-77
2023/07/13 10:22:46;;;;;;;8.13;3.92;;;17.90;99.90;;;;;;5037325;28;20083;-77
2023/07/13 10:25:24;;;;;;;8.30;3.38;;;18.00;99.90;;;;;;5040598;28;20047;-77
2023/07/13 10:27:58;;;;;;;6.63;3.00;;;17.90;99.90;;;;;;5071219;28;20051;-77
2023/07/13 10:30:30;;;;;;;6.70;2.63;;;17.90;99.90;;;;;;5069363;28;20116;-77
2023/07/13 10:33:03;;;;;;;8.13;2.63;;;17.80;99.90;;;;;;5070790;28;20048;-77
2023/07/13 10:35:31;;;;;;;5.95;2.83;;;17.90;99.90;;;;;;5071001;28;20492;-77
2023/07/13 10:38:06;;;;;;;5.97;2.88;;;17.80;99.90;;;;;;5067646;28;20043;-77
2023/07/13 10:40:52;;;;;;;7.80;3.10;;;17.80;99.90;;;;;;5060128;28;20037;-77
2023/07/13 10:43:27;;;;;;;7.45;3.00;;;17.70;99.90;;;;;;5064454;28;20041;-77
2023/07/13 10:45:54;;;;;;;7.65;2.92;;;17.60;99.90;;;;;;5054960;28;20496;-77
2023/07/13 10:48:23;;;;;;;8.00;3.13;;;17.60;99.90;;;;;;5073116;28;20055;-77
2023/07/13 10:50:53;;;;;;;7.00;3.15;;;17.70;99.90;;;;;;5067226;28;20400;-77
2023/07/13 10:53:30;;;;;;;7.65;3.58;;;17.70;99.90;;;;;;5069482;28;20553;-77
2023/07/13 10:56:02;;;;;;;8.65;3.35;;;17.60;99.90;;;;;;5068671;28;20454;-77
2023/07/13 10:58:31;;;;;;;7.05;3.00;;;17.70;99.90;;;;;;5056339;28;20401;-77
2023/07/13 11:01:08;;;;;;;8.27;2.95;;;17.90;99.90;;;;;;5083436;28;20048;-77
2023/07/13 11:03:36;;;;;;;8.45;3.10;;;18.00;99.90;;;;;;5052305;28;20045;-77
2023/07/13 11:06:15;;;;;;;5.82;2.40;;;18.20;99.90;;;;;;5054320;28;20135;-77
2023/07/13 11:08:46;;;;;;;6.28;2.90;;;18.50;99.90;;;;;;5055555;28;20036;-76
2023/07/13 11:11:25;;;;;;;;;;;18.70;99.90;;;;;;5055461;28;20075;-77
2023/07/13 11:13:50;;;;;;;6.65;3.20;;;18.80;99.90;;;;;;5073285;28;19958;-77
2023/07/13 11:16:22;;;;;;;9.18;3.13;;;18.90;99.90;;;;;;5069035;28;20040;-77
2023/07/13 11:18:50;;;;;;;4.93;2.67;;;19.00;99.90;;;;;;5067574;28;20113;-77
2023/07/13 11:21:18;;;;;;;7.22;2.70;;;19.10;99.90;;;;;;5067570;28;20509;-77
2023/07/13 11:23:51;;;;;;;7.25;2.70;;;19.30;99.90;;;;;;5064366;28;20396;-77
2023/07/13 11:26:40;;;;;;;6.43;2.58;;;19.40;99.90;;;;;;5052934;28;20543;-76
2023/07/13 11:29:25;;;;;;;6.80;2.13;;;19.50;99.90;;;;;;5084152;28;20060;-77
2023/07/13 11:31:53;;;;;;;8.57;2.33;;;19.60;99.90;;;;;;5071655;28;20556;-77
2023/07/13 11:34:39;;;;;;;5.32;2.10;;;19.70;99.90;;;;;;5053685;28;20219;-76
2023/07/13 11:37:11;;;;;;;7.53;2.58;;;19.80;99.90;;;;;;5052392;28;20127;-76
2023/07/13 11:39:42;;;;;;;6.00;2.35;;;19.80;99.90;;;;;;5054173;28;20049;-77
2023/07/13 11:42:12;;;;;;;5.53;2.20;;;19.60;99.90;;;;;;5052536;28;20051;-77
2023/07/13 11:44:43;;;;;;;8.00;2.40;;;19.40;99.90;;;;;;5047782;28;20078;-76
2023/07/13 11:47:22;;;;;;;8.10;2.17;;;19.40;99.90;;;;;;5051560;28;20497;-79
2023/07/13 11:49:50;;;;;;;5.60;2.15;;;19.50;99.90;;;;;;5054296;28;20401;-76
2023/07/13 11:52:23;;;;;;;7.90;2.22;;;19.60;99.90;;;;;;5056625;28;20040;-76
2023/07/13 11:54:56;;;;;;;7.45;2.17;;;19.80;99.90;;;;;;5046275;28;20044;-76
2023/07/13 11:57:35;;;;;;;6.57;1.90;;;19.90;99.90;;;;;;5042731;28;20102;-76
2023/07/13 12:00:12;;;;;;;9.05;2.05;;;20.10;99.90;;;;;;5052066;28;20409;-76
2023/07/13 12:02:42;;;;;;;6.43;1.67;;;20.00;99.90;;;;;;5052620;28;20043;-76
2023/07/13 12:05:12;;;;;;;6.30;1.70;;;20.10;99.90;;;;;;5077542;28;20033;-79
2023/07/13 12:07:39;;;;;;;4.93;1.77;;;20.10;99.90;;;;;;5054127;28;20041;-75
2023/07/13 12:10:22;;;;;;;6.18;1.70;;;20.10;99.90;;;;;;5061610;28;20044;-75
2023/07/13 12:12:58;;;;;;;5.97;1.60;;;20.30;99.90;;;;;;5064565;28;20036;-75
2023/07/13 12:15:38;;;;;;;6.40;1.70;;;20.30;99.90;;;;;;5075922;28;20040;-75
2023/07/13 12:18:14;;;;;;;5.72;1.65;;;20.20;99.90;;;;;;5040427;28;20043;-74
2023/07/13 12:20:40;;;;;;;5.47;1.90;;;20.30;99.90;;;;;;5055418;28;20095;-74
2023/07/13 12:23:14;;;;;;;5.25;1.67;;;20.10;99.90;;;;;;5058919;28;20037;-75
2023/07/13 12:25:40;;;;;;;5.60;1.67;;;19.90;99.90;;;;;;5053336;28;20041;-75
2023/07/13 12:28:21;;;;;;;8.30;2.17;;;19.90;99.90;;;;;;5074397;28;20128;-75
2023/07/13 12:30:49;;;;;;;5.45;1.80;;;19.80;99.90;;;;;;5054310;28;20102;-75
2023/07/13 12:33:16;;;;;;;6.40;1.90;;;19.90;99.90;;;;;;5075895;28;20044;-75
2023/07/13 12:35:47;;;;;;;6.35;1.83;;;20.00;99.90;;;;;;5066273;28;20484;-75
2023/07/13 12:38:14;;;;;;;5.38;1.70;;;20.10;99.90;;;;;;5058068;28;20088;-75
2023/07/13 12:40:40;;;;;;;6.38;1.70;;;20.00;99.90;;;;;;5067018;28;20043;-75
2023/07/13 12:43:12;;;;;;;6.70;1.50;;;20.00;99.90;;;;;;5071426;28;20498;-75
2023/07/13 12:45:38;;;;;;;7.47;1.90;;;20.00;99.90;;;;;;5060121;28;20361;-75
2023/07/13 12:48:14;;;;;;;6.50;1.88;;;20.10;99.90;;;;;;5040826;28;20037;-75
2023/07/13 12:50:42;;;;;;;4.43;1.63;;;19.90;99.90;;;;;;5045953;28;20097;-75